createdAt,value
2023-05-16T00:00:00.451Z,33.86
2023-05-16T00:01:00.541Z,33.86
2023-05-16T00:02:00.600Z,33.83
2023-05-16T00:03:00.736Z,33.83
2023-05-16T00:04:00.760Z,33.84
2023-05-16T00:05:00.741Z,33.84
2023-05-16T00:06:00.812Z,33.87
2023-05-16T00:07:00.850Z,33.86
2023-05-16T00:08:00.954Z,33.87
2023-05-16T00:09:00.982Z,33.87
2023-05-16T00:10:01.033Z,33.83
2023-05-16T00:11:01.131Z,33.83
2023-05-16T00:12:01.140Z,33.83
2023-05-16T00:13:01.212Z,33.86
2023-05-16T00:14:01.286Z,33.82
2023-05-16T00:15:01.338Z,33.81
2023-05-16T00:16:01.398Z,33.82
2023-05-16T00:17:01.547Z,33.84
2023-05-16T00:18:01.558Z,33.84
2023-05-16T00:19:01.617Z,33.87
2023-05-16T00:20:01.632Z,33.83
2023-05-16T00:21:01.727Z,33.82
2023-05-16T00:22:01.794Z,33.86
2023-05-16T00:23:01.811Z,33.82
2023-05-16T00:24:01.869Z,33.82
2023-05-16T00:25:01.931Z,33.87
2023-05-16T00:26:02.000Z,33.82
2023-05-16T00:27:02.076Z,33.87
2023-05-16T00:28:02.106Z,33.84
2023-05-16T00:29:02.176Z,33.88
2023-05-16T00:30:02.237Z,33.82
2023-05-16T00:31:02.307Z,33.83
2023-05-16T00:32:02.408Z,33.84
2023-05-16T00:33:02.499Z,33.88
2023-05-16T00:34:02.504Z,33.81
2023-05-16T00:35:02.542Z,33.84
2023-05-16T00:36:02.655Z,33.87
2023-05-16T00:37:02.654Z,33.81
2023-05-16T00:38:02.701Z,33.81
2023-05-16T00:39:02.757Z,33.83
2023-05-16T00:40:02.828Z,33.84
2023-05-16T00:41:02.905Z,33.83
2023-05-16T00:42:02.940Z,33.82
2023-05-16T00:43:02.994Z,33.83
2023-05-16T00:44:03.101Z,33.82
2023-05-16T00:45:03.153Z,33.84
2023-05-16T00:46:03.234Z,33.82
2023-05-16T00:47:03.266Z,33.81
2023-05-16T00:48:03.333Z,33.81
2023-05-16T00:49:03.354Z,33.81
2023-05-16T00:50:03.425Z,33.84
2023-05-16T00:51:03.489Z,33.86
2023-05-16T00:52:03.520Z,33.82
2023-05-16T00:53:03.582Z,33.86
2023-05-16T00:54:03.642Z,33.83
2023-05-16T00:55:03.727Z,33.84
2023-05-16T00:56:03.719Z,33.84
2023-05-16T00:57:03.773Z,33.83
2023-05-16T00:58:03.799Z,33.82
2023-05-16T00:59:03.852Z,33.83
2023-05-16T01:00:03.885Z,33.82
2023-05-16T01:01:04.092Z,33.84
2023-05-16T01:02:04.091Z,33.82
2023-05-16T01:03:04.117Z,33.83
2023-05-16T01:04:04.354Z,33.84
2023-05-16T01:05:04.134Z,33.83
2023-05-16T01:06:04.158Z,33.80
2023-05-16T01:07:04.222Z,33.84
2023-05-16T01:08:04.395Z,33.82
2023-05-16T01:09:04.300Z,33.82
2023-05-16T01:10:04.333Z,33.84
2023-05-16T01:11:04.385Z,33.81
2023-05-16T01:12:04.393Z,33.81
2023-05-16T01:13:04.429Z,33.79
2023-05-16T01:14:04.480Z,33.78
2023-05-16T01:15:04.479Z,33.83
2023-05-16T01:16:04.546Z,33.83
2023-05-16T01:17:04.515Z,33.85
2023-05-16T01:18:04.665Z,33.76
2023-05-16T01:19:04.619Z,33.80
2023-05-16T01:20:04.619Z,33.79
2023-05-16T01:21:04.673Z,33.84
2023-05-16T01:22:04.726Z,33.80
2023-05-16T01:23:04.757Z,33.83
2023-05-16T01:24:04.801Z,33.84
2023-05-16T01:25:04.799Z,33.84
2023-05-16T01:26:04.838Z,33.84
2023-05-16T01:27:04.873Z,33.81
2023-05-16T01:28:04.956Z,33.82
2023-05-16T01:29:04.935Z,33.85
2023-05-16T01:30:04.959Z,33.85
2023-05-16T01:31:05.084Z,33.83
2023-05-16T01:32:05.085Z,33.87
2023-05-16T01:33:05.096Z,33.83
2023-05-16T01:34:05.083Z,33.79
2023-05-16T01:35:05.145Z,33.84
2023-05-16T01:36:05.167Z,33.88
2023-05-16T01:37:05.191Z,33.83
2023-05-16T01:38:05.224Z,33.81
2023-05-16T01:39:05.247Z,33.80
2023-05-16T01:40:05.260Z,33.84
2023-05-16T01:41:05.288Z,33.84
2023-05-16T01:42:05.303Z,33.81
2023-05-16T01:43:05.347Z,33.84
2023-05-16T01:44:05.374Z,33.84
2023-05-16T01:45:05.408Z,33.83
2023-05-16T01:46:05.450Z,33.84
2023-05-16T01:47:05.728Z,33.85
2023-05-16T01:48:05.633Z,33.85
2023-05-16T01:49:05.600Z,33.85
2023-05-16T01:50:05.650Z,33.81
2023-05-16T01:51:05.720Z,33.85
2023-05-16T01:52:05.727Z,33.81
2023-05-16T01:53:05.758Z,33.84
2023-05-16T01:54:05.849Z,33.83
2023-05-16T01:55:05.795Z,33.85
2023-05-16T01:56:05.841Z,33.83
2023-05-16T01:57:05.844Z,33.84
2023-05-16T01:58:05.928Z,33.85
2023-05-16T01:59:05.940Z,33.84
2023-05-16T02:00:05.939Z,33.84
2023-05-16T02:01:06.033Z,33.83
2023-05-16T02:02:06.024Z,33.83
2023-05-16T02:03:06.173Z,33.82
2023-05-16T02:04:06.101Z,33.83
2023-05-16T02:05:06.075Z,33.81
2023-05-16T02:06:06.094Z,33.83
2023-05-16T02:07:06.145Z,33.88
2023-05-16T02:08:06.145Z,33.80
2023-05-16T02:09:06.157Z,33.86
2023-05-16T02:10:06.166Z,33.84
2023-05-16T02:11:06.192Z,33.83
2023-05-16T02:12:06.207Z,33.84
2023-05-16T02:13:06.237Z,33.83
2023-05-16T02:14:06.259Z,33.85
2023-05-16T02:15:06.312Z,33.85
2023-05-16T02:16:06.487Z,33.85
2023-05-16T02:17:06.437Z,33.84
2023-05-16T02:18:06.421Z,33.85
2023-05-16T02:19:06.444Z,33.85
2023-05-16T02:20:06.446Z,33.87
2023-05-16T02:21:06.459Z,33.88
2023-05-16T02:22:06.491Z,33.89
2023-05-16T02:23:06.465Z,33.81
2023-05-16T02:24:06.461Z,33.88
2023-05-16T02:25:06.470Z,33.84
2023-05-16T02:26:06.503Z,33.87
2023-05-16T02:27:06.534Z,33.85
2023-05-16T02:28:06.562Z,33.88
2023-05-16T02:29:06.578Z,33.88
2023-05-16T02:30:06.608Z,33.83
2023-05-16T02:31:06.643Z,33.86
2023-05-16T02:32:06.653Z,33.90
2023-05-16T02:33:06.710Z,33.86
2023-05-16T02:34:06.695Z,33.85
2023-05-16T02:35:06.712Z,33.88
2023-05-16T02:36:06.722Z,33.88
2023-05-16T02:37:06.720Z,33.82
2023-05-16T02:38:06.739Z,33.85
2023-05-16T02:39:06.719Z,33.88
2023-05-16T02:40:06.735Z,33.81
2023-05-16T02:41:06.756Z,33.86
2023-05-16T02:42:06.755Z,33.84
2023-05-16T02:43:06.760Z,33.82
2023-05-16T02:44:06.778Z,33.89
2023-05-16T02:45:06.793Z,33.86
2023-05-16T02:46:06.834Z,33.88
2023-05-16T02:47:06.796Z,33.91
2023-05-16T02:48:06.858Z,33.87
2023-05-16T02:49:06.797Z,33.85
2023-05-16T02:50:06.831Z,33.89
2023-05-16T02:51:06.806Z,33.85
2023-05-16T02:52:06.782Z,33.83
2023-05-16T02:53:06.822Z,33.90
2023-05-16T02:54:06.864Z,33.87
2023-05-16T02:55:23.846Z,33.89
2023-05-16T02:56:07.823Z,33.88
2023-05-16T02:57:06.796Z,33.90
2023-05-16T02:58:06.776Z,33.88
2023-05-16T02:59:06.790Z,33.86
2023-05-16T03:00:06.770Z,33.90
2023-05-16T03:01:06.826Z,33.86
2023-05-16T03:02:06.800Z,33.90
2023-05-16T03:03:06.835Z,33.87
2023-05-16T03:04:06.777Z,33.89
2023-05-16T03:05:06.727Z,33.84
2023-05-16T03:06:06.794Z,33.86
2023-05-16T03:07:06.725Z,33.85
2023-05-16T03:08:06.723Z,33.90
2023-05-16T03:09:06.713Z,33.89
2023-05-16T03:10:06.697Z,33.86
2023-05-16T03:11:06.706Z,33.85
2023-05-16T03:12:07.284Z,33.85
2023-05-16T03:13:06.672Z,33.87
2023-05-16T03:14:06.678Z,33.87
2023-05-16T03:15:06.669Z,33.89
2023-05-16T03:16:06.732Z,33.86
2023-05-16T03:17:06.654Z,33.90
2023-05-16T03:18:06.686Z,33.87
2023-05-16T03:19:06.681Z,33.89
2023-05-16T03:20:06.664Z,33.86
2023-05-16T03:21:06.613Z,33.87
2023-05-16T03:22:06.635Z,33.89
2023-05-16T03:23:06.612Z,33.93
2023-05-16T03:24:06.644Z,33.82
2023-05-16T03:25:06.598Z,33.85
2023-05-16T03:26:06.590Z,33.86
2023-05-16T03:27:06.593Z,33.86
2023-05-16T03:28:06.573Z,33.87
2023-05-16T03:29:06.559Z,33.89
2023-05-16T03:30:06.563Z,33.86
2023-05-16T03:31:06.629Z,33.85
2023-05-16T03:32:06.567Z,33.88
2023-05-16T03:33:06.580Z,33.89
2023-05-16T03:34:06.533Z,33.91
2023-05-16T03:35:06.524Z,33.88
2023-05-16T03:36:06.528Z,33.90
2023-05-16T03:37:06.520Z,33.90
2023-05-16T03:38:06.501Z,33.91
2023-05-16T03:39:06.508Z,33.90
2023-05-16T03:40:06.529Z,33.89
2023-05-16T03:41:06.513Z,33.91
2023-05-16T03:42:06.506Z,33.89
2023-05-16T03:43:06.486Z,33.93
2023-05-16T03:44:06.482Z,33.94
2023-05-16T03:45:06.513Z,33.87
2023-05-16T03:46:06.544Z,33.90
2023-05-16T03:47:06.501Z,33.87
2023-05-16T03:48:06.548Z,33.89
2023-05-16T03:49:06.515Z,33.93
2023-05-16T03:50:06.555Z,33.89
2023-05-16T03:51:06.573Z,33.92
2023-05-16T03:52:06.593Z,33.92
2023-05-16T03:53:06.592Z,33.89
2023-05-16T03:54:06.624Z,33.92
2023-05-16T03:55:06.639Z,33.95
2023-05-16T03:56:06.673Z,33.89
2023-05-16T03:57:06.681Z,33.87
2023-05-16T03:58:06.701Z,33.91
2023-05-16T03:59:06.698Z,33.91
2023-05-16T04:00:06.716Z,33.90
2023-05-16T04:01:06.752Z,33.91
2023-05-16T04:02:06.810Z,33.86
2023-05-16T04:03:06.796Z,33.90
2023-05-16T04:04:06.765Z,33.94
2023-05-16T04:05:06.854Z,33.89
2023-05-16T04:06:06.847Z,33.87
2023-05-16T04:07:06.765Z,33.90
2023-05-16T04:08:06.779Z,33.90
2023-05-16T04:09:06.790Z,33.87
2023-05-16T04:10:06.821Z,33.86
2023-05-16T04:11:06.799Z,33.90
2023-05-16T04:12:06.800Z,33.91
2023-05-16T04:13:06.816Z,33.92
2023-05-16T04:14:06.862Z,33.94
2023-05-16T04:15:06.817Z,33.87
2023-05-16T04:16:06.837Z,33.92
2023-05-16T04:17:06.961Z,33.92
2023-05-16T04:18:06.937Z,33.89
2023-05-16T04:19:07.010Z,33.90
2023-05-16T04:20:06.866Z,33.92
2023-05-16T04:21:06.874Z,33.92
2023-05-16T04:22:06.869Z,33.87
2023-05-16T04:23:06.882Z,33.91
2023-05-16T04:24:06.908Z,33.90
2023-05-16T04:25:06.956Z,33.90
2023-05-16T04:26:06.962Z,33.93
2023-05-16T04:27:06.886Z,33.88
2023-05-16T04:28:06.897Z,33.91
2023-05-16T04:29:06.880Z,33.90
2023-05-16T04:30:06.880Z,33.92
2023-05-16T04:31:06.958Z,33.91
2023-05-16T04:32:06.907Z,33.90
2023-05-16T04:33:06.903Z,33.85
2023-05-16T04:34:06.887Z,33.90
2023-05-16T04:35:06.880Z,33.91
2023-05-16T04:36:06.896Z,33.91
2023-05-16T04:37:06.918Z,33.94
2023-05-16T04:38:06.921Z,33.90
2023-05-16T04:39:06.934Z,33.92
2023-05-16T04:40:06.959Z,33.94
2023-05-16T04:41:06.952Z,33.91
2023-05-16T04:42:07.014Z,33.95
2023-05-16T04:43:06.985Z,33.92
2023-05-16T04:44:07.006Z,33.95
2023-05-16T04:45:07.023Z,33.93
2023-05-16T04:46:07.163Z,33.91
2023-05-16T04:47:07.054Z,33.95
2023-05-16T04:48:07.109Z,33.91
2023-05-16T04:49:07.052Z,33.95
2023-05-16T04:50:07.042Z,33.87
2023-05-16T04:51:07.081Z,33.88
2023-05-16T04:52:07.082Z,33.95
2023-05-16T04:53:07.068Z,33.94
2023-05-16T04:54:07.077Z,33.88
2023-05-16T04:55:07.105Z,33.92
2023-05-16T04:56:07.498Z,33.94
2023-05-16T04:57:07.140Z,33.94
2023-05-16T04:58:07.171Z,33.88
2023-05-16T04:59:07.164Z,33.90
2023-05-16T05:00:07.166Z,33.94
2023-05-16T05:01:07.168Z,33.91
2023-05-16T05:02:07.324Z,33.90
2023-05-16T05:03:07.256Z,33.92
2023-05-16T05:04:07.226Z,33.92
2023-05-16T05:05:07.313Z,33.94
2023-05-16T05:06:07.210Z,33.94
2023-05-16T05:07:07.207Z,33.95
2023-05-16T05:08:07.213Z,33.91
2023-05-16T05:09:07.240Z,33.92
2023-05-16T05:10:07.250Z,33.90
2023-05-16T05:11:07.277Z,33.95
2023-05-16T05:12:07.305Z,33.95
2023-05-16T05:13:07.288Z,33.91
2023-05-16T05:14:07.302Z,33.91
2023-05-16T05:15:07.337Z,33.98
2023-05-16T05:16:07.359Z,33.92
2023-05-16T05:17:07.393Z,33.96
2023-05-16T05:18:07.455Z,33.91
2023-05-16T05:19:07.420Z,33.91
2023-05-16T05:20:07.394Z,33.95
2023-05-16T05:21:07.451Z,33.98
2023-05-16T05:22:07.407Z,34.01
2023-05-16T05:23:07.540Z,33.95
2023-05-16T05:24:07.493Z,33.95
2023-05-16T05:25:08.015Z,33.98
2023-05-16T05:26:07.586Z,34.00
2023-05-16T05:27:07.524Z,34.01
2023-05-16T05:28:07.544Z,34.00
2023-05-16T05:29:07.689Z,34.05
2023-05-16T05:30:07.585Z,34.04
2023-05-16T05:31:07.700Z,34.03
2023-05-16T05:32:07.789Z,34.47
2023-05-16T05:33:07.718Z,37.52
2023-05-16T05:34:07.658Z,37.69
2023-05-16T05:35:07.701Z,38.04
2023-05-16T05:36:07.777Z,38.78
2023-05-16T05:37:07.900Z,39.05
2023-05-16T05:38:07.902Z,39.22
2023-05-16T05:39:07.900Z,39.38
2023-05-16T05:40:07.968Z,39.74
2023-05-16T05:41:08.058Z,39.64
2023-05-16T05:42:08.046Z,39.78
2023-05-16T05:43:08.085Z,39.71
2023-05-16T05:44:08.147Z,39.54
2023-05-16T05:45:08.178Z,39.65
2023-05-16T05:46:08.238Z,39.77
2023-05-16T05:47:08.327Z,39.62
2023-05-16T05:48:08.361Z,39.56
2023-05-16T05:49:08.284Z,39.48
2023-05-16T05:50:08.380Z,39.44
2023-05-16T05:51:08.613Z,39.24
2023-05-16T05:52:08.333Z,39.49
2023-05-16T05:53:08.335Z,39.27
2023-05-16T05:54:08.381Z,39.14
2023-05-16T05:55:08.365Z,38.88
2023-05-16T05:56:08.383Z,38.68
2023-05-16T05:57:08.415Z,38.64
2023-05-16T05:58:08.411Z,38.69
2023-05-16T05:59:08.413Z,39.14
2023-05-16T06:00:08.415Z,39.14
2023-05-16T06:01:08.435Z,39.18
2023-05-16T06:02:08.549Z,39.02
2023-05-16T06:03:08.524Z,38.72
2023-05-16T06:04:08.467Z,38.88
2023-05-16T06:05:08.569Z,38.62
2023-05-16T06:06:08.491Z,38.57
2023-05-16T06:07:08.519Z,38.51
2023-05-16T06:08:08.519Z,38.32
2023-05-16T06:09:08.536Z,38.12
2023-05-16T06:10:08.573Z,38.07
2023-05-16T06:11:08.561Z,38.06
2023-05-16T06:12:08.562Z,38.02
2023-05-16T06:13:08.591Z,37.90
2023-05-16T06:14:08.577Z,37.89
2023-05-16T06:15:08.606Z,37.90
2023-05-16T06:16:09.685Z,38.13
2023-05-16T06:17:08.667Z,38.14
2023-05-16T06:18:08.732Z,37.87
2023-05-16T06:19:08.722Z,38.04
2023-05-16T06:20:08.643Z,38.35
2023-05-16T06:21:08.685Z,38.17
2023-05-16T06:22:08.701Z,38.00
2023-05-16T06:23:08.658Z,37.86
2023-05-16T06:24:08.657Z,37.92
2023-05-16T06:25:08.686Z,38.07
2023-05-16T06:26:08.701Z,38.02
2023-05-16T06:27:08.686Z,37.94
2023-05-16T06:28:09.581Z,37.81
2023-05-16T06:29:08.737Z,37.85
2023-05-16T06:30:08.693Z,38.05
2023-05-16T06:31:08.727Z,38.17
2023-05-16T06:32:10.356Z,38.28
2023-05-16T06:33:08.790Z,38.18
2023-05-16T06:34:08.669Z,38.02
2023-05-16T06:35:08.665Z,38.32
2023-05-16T06:36:08.671Z,38.54
2023-05-16T06:37:08.676Z,38.63
2023-05-16T06:38:08.667Z,38.83
2023-05-16T06:39:08.710Z,38.85
2023-05-16T06:40:08.643Z,39.43
2023-05-16T06:41:09.570Z,39.45
2023-05-16T06:42:08.615Z,39.14
2023-05-16T06:43:08.618Z,38.84
2023-05-16T06:44:08.608Z,38.73
2023-05-16T06:45:08.604Z,38.72
2023-05-16T06:46:08.644Z,38.66
2023-05-16T06:47:08.611Z,38.63
2023-05-16T06:48:08.741Z,38.45
2023-05-16T06:49:08.650Z,38.50
2023-05-16T06:50:08.661Z,38.39
2023-05-16T06:51:09.093Z,38.37
2023-05-16T06:52:08.570Z,38.53
2023-05-16T06:53:08.580Z,38.51
2023-05-16T06:54:08.569Z,38.35
2023-05-16T06:55:08.588Z,38.36
2023-05-16T06:56:08.575Z,38.39
2023-05-16T06:57:08.572Z,38.41
2023-05-16T06:58:08.507Z,38.41
2023-05-16T06:59:08.528Z,38.21
2023-05-16T07:00:08.517Z,38.21
2023-05-16T07:01:08.533Z,38.32
2023-05-16T07:02:08.481Z,38.19
2023-05-16T07:03:08.609Z,38.43
2023-05-16T07:04:08.629Z,38.47
2023-05-16T07:05:08.459Z,38.55
2023-05-16T07:06:08.450Z,38.35
2023-05-16T07:07:08.509Z,38.24
2023-05-16T07:08:08.453Z,38.27
2023-05-16T07:09:08.439Z,38.34
2023-05-16T07:10:08.430Z,38.27
2023-05-16T07:11:08.419Z,38.38
2023-05-16T07:12:08.449Z,38.51
2023-05-16T07:13:08.439Z,38.61
2023-05-16T07:14:08.466Z,38.38
2023-05-16T07:15:08.436Z,38.20
2023-05-16T07:16:08.607Z,38.06
2023-05-16T07:17:08.526Z,38.50
2023-05-16T07:18:08.408Z,38.37
2023-05-16T07:19:08.473Z,38.41
2023-05-16T07:20:08.343Z,38.35
2023-05-16T07:21:08.334Z,38.33
2023-05-16T07:22:08.334Z,38.37
2023-05-16T07:23:08.348Z,38.22
2023-05-16T07:24:08.338Z,38.35
2023-05-16T07:25:08.380Z,38.22
2023-05-16T07:26:08.561Z,38.38
2023-05-16T07:27:08.306Z,38.19
2023-05-16T07:28:08.305Z,38.34
2023-05-16T07:29:08.292Z,38.21
2023-05-16T07:30:08.378Z,37.94
2023-05-16T07:31:08.311Z,38.55
2023-05-16T07:32:08.305Z,38.92
2023-05-16T07:33:09.152Z,39.11
2023-05-16T07:34:08.306Z,39.19
2023-05-16T07:35:08.247Z,39.46
2023-05-16T07:36:16.351Z,39.54
2023-05-16T07:37:09.223Z,39.72
2023-05-16T07:38:08.256Z,39.92
2023-05-16T07:39:08.217Z,39.69
2023-05-16T07:40:08.207Z,39.61
2023-05-16T07:41:08.197Z,39.63
2023-05-16T07:42:08.197Z,39.78
2023-05-16T07:43:09.079Z,39.62
2023-05-16T07:44:08.170Z,39.51
2023-05-16T07:45:08.187Z,39.41
2023-05-16T07:46:08.596Z,39.20
2023-05-16T07:47:08.195Z,38.91
2023-05-16T07:48:08.180Z,38.84
2023-05-16T07:49:08.129Z,38.89
2023-05-16T07:50:08.146Z,38.67
2023-05-16T07:51:08.148Z,38.91
2023-05-16T07:52:08.160Z,38.82
2023-05-16T07:53:08.202Z,38.81
2023-05-16T07:54:08.175Z,38.71
2023-05-16T07:55:08.186Z,38.77
2023-05-16T07:56:08.637Z,38.64
2023-05-16T07:57:08.249Z,38.72
2023-05-16T07:58:08.242Z,38.75
2023-05-16T07:59:08.308Z,38.51
2023-05-16T08:00:08.350Z,38.35
2023-05-16T08:01:08.584Z,38.34
2023-05-16T08:02:08.532Z,38.28
2023-05-16T08:03:08.693Z,38.28
2023-05-16T08:04:08.547Z,38.19
2023-05-16T08:05:08.790Z,38.36
2023-05-16T08:06:08.812Z,38.38
2023-05-16T08:07:08.672Z,38.25
2023-05-16T08:08:08.697Z,38.12
2023-05-16T08:09:08.744Z,38.29
2023-05-16T08:10:09.717Z,38.24
2023-05-16T08:11:08.805Z,38.06
2023-05-16T08:12:08.810Z,38.21
2023-05-16T08:13:08.877Z,38.57
2023-05-16T08:14:08.862Z,38.59
2023-05-16T08:15:08.962Z,38.72
2023-05-16T08:16:08.910Z,38.54
2023-05-16T08:17:08.888Z,38.19
2023-05-16T08:18:08.911Z,38.30
2023-05-16T08:19:08.939Z,38.41
2023-05-16T08:20:08.907Z,38.42
2023-05-16T08:21:09.090Z,38.35
2023-05-16T08:22:08.888Z,38.30
2023-05-16T08:23:08.874Z,38.33
2023-05-16T08:24:08.898Z,38.55
2023-05-16T08:25:08.869Z,38.77
2023-05-16T08:26:08.870Z,38.89
2023-05-16T08:27:09.044Z,38.89
2023-05-16T08:28:08.873Z,38.99
2023-05-16T08:29:08.999Z,39.07
2023-05-16T08:30:08.908Z,39.22
2023-05-16T08:31:09.602Z,39.27
2023-05-16T08:32:08.979Z,39.29
2023-05-16T08:33:09.683Z,39.47
2023-05-16T08:34:09.621Z,39.34
2023-05-16T08:35:09.001Z,39.54
2023-05-16T08:36:09.029Z,39.64
2023-05-16T08:37:09.044Z,39.79
2023-05-16T08:38:09.027Z,39.78
2023-05-16T08:39:09.061Z,39.78
2023-05-16T08:40:09.063Z,39.74
2023-05-16T08:41:09.148Z,39.94
2023-05-16T08:42:09.584Z,39.81
2023-05-16T08:43:09.130Z,39.74
2023-05-16T08:44:09.072Z,39.70
2023-05-16T08:45:09.178Z,39.58
2023-05-16T08:46:09.110Z,39.51
2023-05-16T08:47:09.106Z,39.46
2023-05-16T08:48:10.457Z,39.44
2023-05-16T08:49:09.183Z,39.28
2023-05-16T08:50:09.652Z,39.24
2023-05-16T08:51:09.075Z,39.10
2023-05-16T08:52:09.065Z,38.99
2023-05-16T08:53:09.062Z,38.94
2023-05-16T08:54:09.055Z,38.96
2023-05-16T08:55:11.486Z,38.82
2023-05-16T08:56:09.066Z,38.45
2023-05-16T08:57:09.053Z,38.45
2023-05-16T08:58:09.090Z,38.57
2023-05-16T08:59:09.069Z,38.55
2023-05-16T09:00:09.026Z,38.52
2023-05-16T09:01:09.173Z,38.59
2023-05-16T09:02:09.001Z,38.33
2023-05-16T09:03:09.203Z,38.22
2023-05-16T09:04:09.114Z,38.34
2023-05-16T09:05:08.992Z,38.24
2023-05-16T09:06:09.137Z,38.10
2023-05-16T09:07:08.986Z,38.14
2023-05-16T09:08:09.002Z,38.14
2023-05-16T09:09:08.974Z,38.02
2023-05-16T09:10:09.005Z,38.22
2023-05-16T09:11:08.969Z,38.01
2023-05-16T09:12:09.036Z,38.07
2023-05-16T09:13:08.954Z,37.99
2023-05-16T09:14:08.920Z,38.02
2023-05-16T09:15:08.928Z,38.00
2023-05-16T09:16:08.922Z,37.91
2023-05-16T09:17:10.931Z,38.18
2023-05-16T09:18:08.951Z,37.91
2023-05-16T09:19:08.917Z,37.72
2023-05-16T09:20:08.892Z,37.66
2023-05-16T09:21:09.136Z,37.79
2023-05-16T09:22:08.859Z,37.50
2023-05-16T09:23:08.865Z,37.75
2023-05-16T09:24:08.869Z,37.86
2023-05-16T09:25:18.359Z,37.82
2023-05-16T09:26:09.855Z,37.82
2023-05-16T09:27:08.866Z,37.77
2023-05-16T09:28:08.816Z,37.76
2023-05-16T09:29:09.621Z,37.73
2023-05-16T09:30:08.914Z,37.86
2023-05-16T09:31:09.119Z,37.90
2023-05-16T09:32:08.804Z,37.90
2023-05-16T09:33:08.883Z,37.79
2023-05-16T09:34:08.780Z,38.00
2023-05-16T09:35:08.795Z,38.37
2023-05-16T09:36:08.859Z,38.51
2023-05-16T09:37:08.760Z,38.75
2023-05-16T09:38:08.868Z,39.10
2023-05-16T09:39:08.765Z,39.01
2023-05-16T09:40:08.727Z,39.05
2023-05-16T09:41:09.108Z,39.30
2023-05-16T09:42:08.723Z,38.96
2023-05-16T09:43:08.733Z,38.68
2023-05-16T09:44:08.697Z,38.24
2023-05-16T09:45:08.704Z,37.87
2023-05-16T09:46:09.139Z,37.56
2023-05-16T09:47:08.705Z,37.30
2023-05-16T09:48:08.922Z,37.25
2023-05-16T09:49:08.690Z,37.30
2023-05-16T09:50:08.661Z,37.16
2023-05-16T09:51:08.649Z,37.10
2023-05-16T09:52:08.636Z,37.09
2023-05-16T09:53:08.709Z,37.19
2023-05-16T09:54:08.625Z,37.30
2023-05-16T09:55:08.670Z,37.63
2023-05-16T09:56:08.617Z,37.79
2023-05-16T09:57:08.641Z,37.89
2023-05-16T09:58:08.621Z,37.94
2023-05-16T09:59:08.632Z,38.00
2023-05-16T10:00:08.578Z,38.09
2023-05-16T10:01:08.604Z,38.07
2023-05-16T10:02:08.614Z,38.06
2023-05-16T10:03:08.676Z,38.08
2023-05-16T10:04:08.659Z,38.10
2023-05-16T10:05:08.630Z,38.12
2023-05-16T10:06:08.619Z,38.21
2023-05-16T10:07:08.618Z,38.27
2023-05-16T10:08:08.609Z,38.45
2023-05-16T10:09:08.607Z,38.94
2023-05-16T10:10:08.686Z,38.84
2023-05-16T10:11:08.679Z,38.74
2023-05-16T10:12:08.725Z,38.57
2023-05-16T10:13:08.746Z,38.83
2023-05-16T10:14:08.778Z,38.60
2023-05-16T10:15:08.818Z,38.48
2023-05-16T10:16:08.900Z,38.41
2023-05-16T10:17:08.928Z,38.45
2023-05-16T10:18:08.945Z,38.57
2023-05-16T10:19:09.034Z,38.49
2023-05-16T10:20:09.037Z,38.52
2023-05-16T10:21:11.276Z,38.51
2023-05-16T10:22:08.996Z,38.55
2023-05-16T10:23:08.977Z,38.51
2023-05-16T10:24:08.963Z,38.53
2023-05-16T10:25:08.972Z,38.82
2023-05-16T10:26:09.643Z,39.41
2023-05-16T10:27:08.958Z,39.16
2023-05-16T10:28:08.968Z,39.09
2023-05-16T10:29:08.945Z,39.16
2023-05-16T10:30:08.935Z,39.27
2023-05-16T10:31:09.146Z,39.43
2023-05-16T10:32:08.996Z,39.30
2023-05-16T10:33:09.781Z,39.34
2023-05-16T10:34:08.907Z,39.29
2023-05-16T10:35:08.971Z,39.26
2023-05-16T10:36:08.905Z,39.32
2023-05-16T10:37:08.886Z,39.47
2023-05-16T10:38:08.883Z,39.46
2023-05-16T10:39:08.892Z,39.45
2023-05-16T10:40:08.860Z,39.33
2023-05-16T10:41:08.989Z,39.24
2023-05-16T10:42:08.849Z,39.06
2023-05-16T10:43:08.909Z,38.87
2023-05-16T10:44:08.845Z,38.73
2023-05-16T10:45:08.831Z,38.64
2023-05-16T10:46:08.941Z,38.54
2023-05-16T10:47:08.819Z,38.67
2023-05-16T10:48:08.981Z,38.37
2023-05-16T10:49:08.805Z,38.30
2023-05-16T10:50:08.803Z,38.17
2023-05-16T10:51:08.925Z,38.21
2023-05-16T10:52:08.799Z,38.05
2023-05-16T10:53:08.770Z,37.92
2023-05-16T10:54:08.769Z,37.83
2023-05-16T10:55:08.753Z,37.77
2023-05-16T10:56:08.878Z,37.74
2023-05-16T10:57:09.549Z,37.66
2023-05-16T10:58:08.735Z,37.63
2023-05-16T10:59:08.749Z,37.57
2023-05-16T11:00:08.722Z,37.52
2023-05-16T11:01:09.160Z,37.52
2023-05-16T11:02:08.770Z,37.52
2023-05-16T11:03:08.764Z,37.54
2023-05-16T11:04:08.835Z,37.72
2023-05-16T11:05:08.688Z,37.78
2023-05-16T11:06:08.744Z,37.79
2023-05-16T11:07:08.729Z,37.83
2023-05-16T11:08:08.692Z,37.69
2023-05-16T11:09:08.661Z,37.63
2023-05-16T11:10:08.655Z,37.72
2023-05-16T11:11:08.662Z,37.69
2023-05-16T11:12:08.650Z,37.69
2023-05-16T11:13:08.632Z,37.72
2023-05-16T11:14:08.634Z,37.80
2023-05-16T11:15:08.902Z,37.81
2023-05-16T11:16:08.638Z,37.84
2023-05-16T11:17:08.741Z,37.78
2023-05-16T11:18:08.658Z,38.39
2023-05-16T11:19:08.677Z,38.86
2023-05-16T11:20:08.653Z,39.32
2023-05-16T11:21:08.589Z,39.65
2023-05-16T11:22:08.667Z,39.51
2023-05-16T11:23:08.671Z,39.63
2023-05-16T11:24:08.601Z,39.45
2023-05-16T11:25:08.562Z,39.32
2023-05-16T11:26:08.588Z,39.24
2023-05-16T11:27:08.572Z,39.19
2023-05-16T11:28:08.531Z,39.26
2023-05-16T11:29:08.542Z,39.27
2023-05-16T11:30:08.523Z,39.22
2023-05-16T11:31:08.613Z,39.17
2023-05-16T11:32:08.511Z,39.13
2023-05-16T11:33:08.601Z,39.14
2023-05-16T11:34:08.491Z,39.19
2023-05-16T11:35:08.496Z,39.25
2023-05-16T11:36:15.056Z,39.25
2023-05-16T11:37:09.499Z,39.17
2023-05-16T11:38:08.490Z,39.17
2023-05-16T11:39:08.553Z,39.12
2023-05-16T11:40:08.544Z,39.09
2023-05-16T11:41:08.638Z,38.99
2023-05-16T11:42:08.646Z,39.00
2023-05-16T11:43:08.475Z,39.00
2023-05-16T11:44:08.455Z,38.94
2023-05-16T11:45:08.467Z,38.97
2023-05-16T11:46:08.687Z,38.97
2023-05-16T11:47:08.511Z,38.95
2023-05-16T11:48:08.456Z,38.89
2023-05-16T11:49:08.454Z,38.87
2023-05-16T11:50:08.463Z,38.89
2023-05-16T11:51:08.661Z,38.96
2023-05-16T11:52:08.655Z,39.34
2023-05-16T11:53:08.513Z,39.29
2023-05-16T11:54:08.528Z,39.21
2023-05-16T11:55:08.610Z,39.20
2023-05-16T11:56:08.566Z,39.23
2023-05-16T11:57:08.575Z,39.18
2023-05-16T11:58:08.615Z,39.16
2023-05-16T11:59:08.686Z,39.22
2023-05-16T12:00:08.732Z,39.16
2023-05-16T12:01:08.706Z,39.11
2023-05-16T12:02:08.722Z,39.10
2023-05-16T12:03:08.831Z,39.08
2023-05-16T12:04:08.939Z,38.98
2023-05-16T12:05:08.885Z,38.97
2023-05-16T12:06:08.849Z,38.96
2023-05-16T12:07:08.917Z,39.11
2023-05-16T12:08:08.887Z,39.03
2023-05-16T12:09:08.956Z,38.99
2023-05-16T12:10:09.020Z,38.93
2023-05-16T12:11:09.003Z,38.98
2023-05-16T12:12:08.994Z,39.12
2023-05-16T12:13:08.996Z,39.04
2023-05-16T12:14:09.022Z,38.91
2023-05-16T12:15:09.097Z,38.97
2023-05-16T12:16:09.171Z,38.97
2023-05-16T12:17:09.202Z,38.97
2023-05-16T12:18:09.229Z,38.88
2023-05-16T12:19:09.186Z,38.94
2023-05-16T12:20:09.180Z,39.21
2023-05-16T12:21:09.223Z,39.13
2023-05-16T12:22:09.207Z,39.26
2023-05-16T12:23:09.244Z,39.45
2023-05-16T12:24:09.210Z,39.53
2023-05-16T12:25:09.260Z,39.58
2023-05-16T12:26:09.288Z,40.04
2023-05-16T12:27:09.398Z,40.01
2023-05-16T12:28:09.364Z,39.58
2023-05-16T12:29:09.363Z,39.47
2023-05-16T12:30:09.385Z,39.07
2023-05-16T12:31:19.575Z,39.06
2023-05-16T12:32:10.446Z,38.84
2023-05-16T12:33:09.464Z,38.69
2023-05-16T12:34:09.371Z,38.61
2023-05-16T12:35:09.965Z,38.43
2023-05-16T12:36:09.353Z,38.39
2023-05-16T12:37:09.377Z,38.28
2023-05-16T12:38:09.419Z,38.24
2023-05-16T12:39:09.548Z,38.13
2023-05-16T12:40:09.350Z,38.08
2023-05-16T12:41:09.323Z,37.94
2023-05-16T12:42:09.338Z,37.99
2023-05-16T12:43:09.393Z,38.07
2023-05-16T12:44:09.405Z,37.97
2023-05-16T12:45:09.433Z,37.92
2023-05-16T12:46:10.299Z,37.77
2023-05-16T12:47:09.502Z,37.77
2023-05-16T12:48:09.537Z,37.81
2023-05-16T12:49:09.535Z,37.81
2023-05-16T12:50:09.614Z,37.90
2023-05-16T12:51:09.635Z,37.90
2023-05-16T12:52:09.653Z,38.00